createdAt,value
2022-12-04T00:04:01.451Z,-7.66
2022-12-04T00:09:04.008Z,-7.64
2022-12-04T00:14:07.562Z,-7.98
2022-12-04T00:19:09.918Z,-8.14
2022-12-04T00:24:12.452Z,-8.13
2022-12-04T00:29:14.927Z,-9.06
2022-12-04T00:34:17.091Z,-8.07
2022-12-04T00:39:19.313Z,-8.34
2022-12-04T00:44:21.427Z,-9.22
2022-12-04T00:49:23.608Z,-8.84
2022-12-04T00:54:25.756Z,-7.86
2022-12-04T00:59:28.013Z,-7.91
2022-12-04T01:04:30.252Z,-9.50
2022-12-04T01:09:33.170Z,-8.10
2022-12-04T01:14:35.346Z,-8.03
2022-12-04T01:19:37.590Z,-7.91
2022-12-04T01:24:39.732Z,-9.15
2022-12-04T01:29:42.015Z,-9.03
2022-12-04T01:34:44.294Z,-8.17
2022-12-04T01:39:46.507Z,-8.20
2022-12-04T01:45:33.676Z,-7.86
2022-12-04T01:50:36.197Z,-7.90
2022-12-04T01:55:38.981Z,-10.78
2022-12-04T02:00:41.372Z,-8.07
2022-12-04T02:05:43.626Z,-7.93
2022-12-04T02:11:09.398Z,-8.42
2022-12-04T02:16:51.830Z,-7.94
2022-12-04T02:21:55.808Z,-8.68
2022-12-04T02:27:25.059Z,-8.60
2022-12-04T02:32:36.326Z,-7.97
2022-12-04T02:37:41.759Z,-8.07
2022-12-04T02:42:48.344Z,-8.49
2022-12-04T02:47:51.875Z,-8.17
2022-12-04T02:52:58.054Z,-8.38
2022-12-04T02:58:05.457Z,-9.04
2022-12-04T03:03:12.308Z,-8.44
2022-12-04T03:08:19.043Z,-8.45
2022-12-04T03:13:41.894Z,-8.27
2022-12-04T03:18:50.884Z,-8.52
2022-12-04T03:24:03.255Z,-8.40
2022-12-04T03:29:13.418Z,-8.43
2022-12-04T03:34:39.252Z,-8.78
2022-12-04T03:39:50.473Z,-8.45
2022-12-04T03:45:09.798Z,-9.35
2022-12-04T03:50:25.078Z,-9.22
2022-12-04T03:55:31.443Z,-10.05
2022-12-04T04:00:37.432Z,-8.97
2022-12-04T04:05:43.428Z,-9.42
2022-12-04T04:10:45.912Z,-8.70
2022-12-04T04:16:11.579Z,-9.20
2022-12-04T04:21:33.830Z,-9.52
2022-12-04T04:26:39.597Z,-8.85
2022-12-04T04:31:59.521Z,-9.34
2022-12-04T04:37:20.911Z,-10.36
2022-12-04T04:42:26.841Z,-9.24
2022-12-04T04:47:45.905Z,-9.64
2022-12-04T04:52:51.572Z,-8.96
2022-12-04T04:57:53.741Z,-9.21
2022-12-04T05:02:55.932Z,-9.42
2022-12-04T05:07:58.336Z,-9.51
2022-12-04T05:13:00.569Z,-9.86
2022-12-04T05:18:02.788Z,-9.27
2022-12-04T05:23:04.974Z,-10.19
2022-12-04T05:28:07.201Z,-9.61
2022-12-04T05:33:10.466Z,-10.39
2022-12-04T05:38:12.680Z,-9.35
2022-12-04T05:43:14.963Z,-9.74
2022-12-04T05:48:17.281Z,-10.30
2022-12-04T05:53:19.578Z,-9.54
2022-12-04T05:58:21.753Z,-9.26
2022-12-04T06:03:24.119Z,-10.76
2022-12-04T06:08:26.411Z,-9.70
2022-12-04T06:13:28.675Z,-9.98
2022-12-04T06:18:30.839Z,-9.27
2022-12-04T06:23:32.980Z,-9.23
2022-12-04T06:28:35.884Z,-9.59
2022-12-04T06:33:38.249Z,-9.24
2022-12-04T06:38:41.173Z,-9.23
2022-12-04T06:43:43.499Z,-12.01
2022-12-04T06:48:45.916Z,-14.08
2022-12-04T06:53:48.426Z,-11.85
2022-12-04T06:58:52.912Z,-9.22
2022-12-04T07:03:56.826Z,-9.71
2022-12-04T07:09:07.140Z,-11.59
2022-12-04T07:14:10.412Z,-12.65
2022-12-04T07:19:14.404Z,-10.19
2022-12-04T07:24:17.735Z,-9.15
2022-12-04T07:29:20.018Z,-9.07
2022-12-04T07:34:22.160Z,-9.68
2022-12-04T07:39:24.363Z,-9.04
2022-12-04T07:44:26.656Z,-8.52
2022-12-04T07:49:29.348Z,-8.41
2022-12-04T07:54:31.607Z,-9.75
2022-12-04T07:59:33.778Z,-8.26
2022-12-04T08:04:37.240Z,-8.72
2022-12-04T08:09:39.540Z,-8.64
2022-12-04T08:14:41.678Z,-8.39
2022-12-04T08:19:43.855Z,-9.77
2022-12-04T08:24:46.021Z,-8.72
2022-12-04T08:29:48.370Z,-8.82
2022-12-04T08:34:55.702Z,-8.81
2022-12-04T08:40:01.394Z,-9.72
2022-12-04T08:45:06.140Z,-8.77
2022-12-04T08:50:08.720Z,-9.74
2022-12-04T08:55:10.912Z,-8.53
2022-12-04T09:00:13.607Z,-8.46
2022-12-04T09:05:15.959Z,-8.86
2022-12-04T09:10:18.364Z,-9.35
2022-12-04T09:15:20.611Z,-8.25
2022-12-04T09:20:22.895Z,-9.29
2022-12-04T09:25:25.091Z,-8.71
2022-12-04T09:30:31.083Z,-8.15
2022-12-04T09:35:34.316Z,-9.83
2022-12-04T09:40:44.794Z,-8.28
2022-12-04T09:45:51.062Z,-8.38
2022-12-04T09:50:53.972Z,-8.72
2022-12-04T09:55:59.935Z,-7.96
2022-12-04T10:01:04.044Z,-8.24
2022-12-04T10:06:16.043Z,-8.49
2022-12-04T10:11:32.209Z,-9.10
2022-12-04T10:16:41.178Z,-7.79
2022-12-04T10:21:59.722Z,-8.07
2022-12-04T10:27:09.299Z,-8.53
2022-12-04T10:32:19.335Z,-7.67
2022-12-04T10:37:22.916Z,-8.92
2022-12-04T10:42:41.682Z,-7.63
2022-12-04T10:47:46.997Z,-8.15
2022-12-04T10:52:49.872Z,-8.76
2022-12-04T10:57:52.192Z,-12.13
2022-12-04T11:02:56.453Z,-10.67
2022-12-04T11:08:00.855Z,-7.55
2022-12-04T11:13:14.801Z,-10.17
2022-12-04T11:18:28.908Z,-7.52
2022-12-04T11:23:41.445Z,-7.51
2022-12-04T11:28:53.066Z,-7.82
2022-12-04T11:34:04.175Z,-11.38
2022-12-04T11:39:28.002Z,-7.47
2022-12-04T11:44:34.319Z,-7.88
2022-12-04T11:49:42.244Z,-7.47
2022-12-04T11:54:51.248Z,-7.48
2022-12-04T12:00:03.981Z,-7.47
2022-12-04T12:05:17.413Z,-7.48
2022-12-04T12:10:25.749Z,-9.04
2022-12-04T12:15:41.363Z,-7.43
2022-12-04T12:20:54.308Z,-8.15
2022-12-04T12:26:10.825Z,-9.44
2022-12-04T12:31:38.178Z,-7.47
2022-12-04T12:36:44.617Z,-7.67
2022-12-04T12:42:00.466Z,-7.93
2022-12-04T12:47:20.031Z,-7.79
2022-12-04T12:52:43.806Z,-7.53
2022-12-04T12:57:50.527Z,-7.71
2022-12-04T13:03:29.055Z,-7.73
2022-12-04T13:09:04.981Z,-8.04
2022-12-04T13:14:07.607Z,-7.94
2022-12-04T13:19:36.167Z,-7.64
2022-12-04T13:24:56.823Z,-7.67
2022-12-04T13:30:24.509Z,-7.68
2022-12-04T13:36:17.956Z,-7.64
2022-12-04T13:41:26.077Z,-7.72
2022-12-04T13:46:38.501Z,-8.48
2022-12-04T13:51:46.736Z,-8.33
2022-12-04T13:56:51.854Z,-7.96
2022-12-04T14:02:04.916Z,-8.81
2022-12-04T14:07:33.467Z,-7.80
2022-12-04T14:12:39.285Z,-8.25
2022-12-04T14:17:44.762Z,-7.86
2022-12-04T14:22:48.418Z,-7.86
2022-12-04T14:27:53.944Z,-9.23
2022-12-04T14:33:22.450Z,-9.26
2022-12-04T14:38:25.937Z,-8.05
2022-12-04T14:43:33.901Z,-7.90
2022-12-04T14:48:38.905Z,-7.91
2022-12-04T14:53:57.624Z,-7.89
2022-12-04T14:59:06.226Z,-8.77
2022-12-04T15:04:46.220Z,-9.10
2022-12-04T15:10:12.205Z,-7.94
2022-12-04T15:15:25.164Z,-8.15
2022-12-04T15:20:33.383Z,-8.83
2022-12-04T15:26:07.430Z,-8.46
2022-12-04T15:31:19.709Z,-7.97
2022-12-04T15:36:47.211Z,-8.98
2022-12-04T15:41:50.049Z,-8.75
2022-12-04T15:46:58.423Z,-8.43
2022-12-04T15:52:17.032Z,-8.08
2022-12-04T15:57:40.650Z,-8.30
2022-12-04T16:02:43.951Z,-8.88
2022-12-04T16:07:58.339Z,-8.89
2022-12-04T16:13:03.191Z,-8.64
2022-12-04T16:18:06.939Z,-8.50
2022-12-04T16:23:09.854Z,-8.95
2022-12-04T16:28:13.389Z,-8.20
2022-12-04T16:33:16.085Z,-9.62
2022-12-04T16:38:18.282Z,-8.87
2022-12-04T16:43:20.538Z,-8.81
2022-12-04T16:48:22.882Z,-8.46
2022-12-04T16:53:25.157Z,-8.77
2022-12-04T16:58:27.426Z,-9.98
2022-12-04T17:03:37.187Z,-9.42
2022-12-04T17:08:39.551Z,-9.32
2022-12-04T17:13:42.189Z,-9.46
2022-12-04T17:18:45.005Z,-8.72
2022-12-04T17:23:47.383Z,-8.43
2022-12-04T17:28:50.621Z,-9.55
2022-12-04T17:33:53.066Z,-8.51
2022-12-04T17:38:56.602Z,-9.13
2022-12-04T17:44:00.376Z,-9.73
2022-12-04T17:49:07.490Z,-10.57
2022-12-04T17:54:13.067Z,-8.74
2022-12-04T17:59:15.649Z,-9.25
2022-12-04T18:04:19.411Z,-10.94
2022-12-04T18:09:23.350Z,-9.79
2022-12-04T18:14:25.818Z,-8.95
2022-12-04T18:19:29.524Z,-9.25
2022-12-04T18:24:31.742Z,-8.92
2022-12-04T18:29:33.942Z,-8.98
2022-12-04T18:34:36.210Z,-9.02
2022-12-04T18:39:38.464Z,-10.01
2022-12-04T18:44:42.999Z,-10.14
2022-12-04T18:49:45.700Z,-10.27
2022-12-04T18:54:47.918Z,-9.23
2022-12-04T18:59:52.974Z,-9.87
2022-12-04T19:04:55.458Z,-9.23
2022-12-04T19:10:13.006Z,-9.23
2022-12-04T19:15:15.288Z,-11.26
2022-12-04T19:20:18.533Z,-9.65
2022-12-04T19:25:20.749Z,-9.70
2022-12-04T19:30:22.955Z,-10.06
2022-12-04T19:35:25.173Z,-9.39
2022-12-04T19:40:27.376Z,-10.49
2022-12-04T19:45:29.586Z,-9.49
2022-12-04T19:50:32.662Z,-9.51
2022-12-04T19:55:36.676Z,-10.24
2022-12-04T20:00:38.869Z,-10.07
2022-12-04T20:05:41.989Z,-10.08
2022-12-04T20:10:44.274Z,-9.79
2022-12-04T20:15:46.498Z,-10.36
2022-12-04T20:20:56.453Z,-9.75
2022-12-04T20:26:05.400Z,-9.66
2022-12-04T20:31:16.112Z,-9.94
2022-12-04T20:36:20.124Z,-10.52
2022-12-04T20:41:22.737Z,-10.15
2022-12-04T20:46:31.783Z,-9.81
2022-12-04T20:51:37.007Z,-9.81
2022-12-04T20:56:39.318Z,-10.03
2022-12-04T21:01:41.950Z,-9.94
2022-12-04T21:06:44.907Z,-9.89
2022-12-04T21:11:52.834Z,-10.37
2022-12-04T21:16:55.013Z,-10.21
2022-12-04T21:21:57.264Z,-10.26
2022-12-04T21:26:59.533Z,-10.15
2022-12-04T21:32:02.108Z,-10.00
2022-12-04T21:37:04.482Z,-10.36
2022-12-04T21:42:25.158Z,-10.55
2022-12-04T21:47:28.135Z,-11.46
2022-12-04T21:52:30.649Z,-10.54
2022-12-04T21:57:32.757Z,-11.93
2022-12-04T22:02:36.429Z,-11.10
2022-12-04T22:07:38.789Z,-12.12
2022-12-04T22:12:49.724Z,-10.61
2022-12-04T22:17:53.309Z,-10.23
2022-12-04T22:22:55.532Z,-10.57
2022-12-04T22:27:58.356Z,-10.67
2022-12-04T22:33:00.832Z,-12.24
2022-12-04T22:38:03.041Z,-11.27
2022-12-04T22:43:05.200Z,-11.12
2022-12-04T22:48:07.329Z,-11.40
2022-12-04T22:53:09.540Z,-10.39
2022-12-04T22:58:11.644Z,-10.39
2022-12-04T23:03:15.186Z,-10.39
2022-12-04T23:08:17.569Z,-10.59
2022-12-04T23:13:19.846Z,-11.83
2022-12-04T23:18:22.013Z,-12.48
2022-12-04T23:23:24.261Z,-11.50
2022-12-04T23:28:26.557Z,-10.46
2022-12-04T23:33:29.050Z,-11.18
2022-12-04T23:38:31.555Z,-10.52
2022-12-04T23:43:34.555Z,-11.32
2022-12-04T23:48:40.911Z,-11.26
2022-12-04T23:53:43.378Z,-11.05
2022-12-04T23:58:46.840Z,-11.25
